createdAt,value
2023-04-17T00:02:02.514Z,6.73
2023-04-17T00:04:34.886Z,6.69
2023-04-17T00:07:07.825Z,6.66
2023-04-17T00:09:39.915Z,6.60
2023-04-17T00:12:12.201Z,6.57
2023-04-17T00:14:44.351Z,6.57
2023-04-17T00:17:16.470Z,6.56
2023-04-17T00:19:50.244Z,6.54
2023-04-17T00:22:22.309Z,6.49
2023-04-17T00:24:54.334Z,6.41
2023-04-17T00:27:27.726Z,6.38
2023-04-17T00:29:59.811Z,6.35
2023-04-17T00:32:31.992Z,6.32
2023-04-17T00:35:04.064Z,6.28
2023-04-17T00:37:36.474Z,6.23
2023-04-17T00:40:13.261Z,6.19
2023-04-17T00:42:53.192Z,6.19
2023-04-17T00:45:25.398Z,6.16
2023-04-17T00:47:58.610Z,6.11
2023-04-17T00:50:31.046Z,6.10
2023-04-17T00:53:03.520Z,6.07
2023-04-17T00:55:39.174Z,6.05
2023-04-17T00:58:11.924Z,6.01
2023-04-17T01:00:44.401Z,5.98
2023-04-17T01:03:17.414Z,5.96
2023-04-17T01:05:52.201Z,5.95
2023-04-17T01:08:24.986Z,5.94
2023-04-17T01:10:57.773Z,5.93
2023-04-17T01:13:29.865Z,5.94
2023-04-17T01:16:02.268Z,5.96
2023-04-17T01:18:34.297Z,5.96
2023-04-17T01:21:06.740Z,5.95
2023-04-17T01:23:48.777Z,5.95
2023-04-17T01:26:22.295Z,5.95
2023-04-17T01:28:56.234Z,5.95
2023-04-17T01:31:29.504Z,5.92
2023-04-17T01:34:03.114Z,5.92
2023-04-17T01:36:35.425Z,5.93
2023-04-17T01:39:07.495Z,5.93
2023-04-17T01:41:39.848Z,5.94
2023-04-17T01:44:11.936Z,5.94
2023-04-17T01:46:44.072Z,5.94
2023-04-17T01:49:16.252Z,5.91
2023-04-17T01:51:48.343Z,5.86
2023-04-17T01:54:21.279Z,5.81
2023-04-17T01:56:53.445Z,5.79
2023-04-17T01:59:27.126Z,5.78
2023-04-17T02:02:00.152Z,5.77
2023-04-17T02:04:32.716Z,5.76
2023-04-17T02:07:04.849Z,5.74
2023-04-17T02:09:36.901Z,5.71
2023-04-17T02:12:12.792Z,5.67
2023-04-17T02:14:45.048Z,5.61
2023-04-17T02:17:17.055Z,5.59
2023-04-17T02:19:49.093Z,5.61
2023-04-17T02:22:21.215Z,5.65
2023-04-17T02:24:53.239Z,5.70
2023-04-17T02:27:25.301Z,5.72
2023-04-17T02:29:57.382Z,5.73
2023-04-17T02:32:30.866Z,5.76
2023-04-17T02:35:03.069Z,5.77
2023-04-17T02:37:37.945Z,5.80
2023-04-17T02:40:11.694Z,5.89
2023-04-17T02:42:45.074Z,5.99
2023-04-17T02:45:18.518Z,6.08
2023-04-17T02:47:50.939Z,6.13
2023-04-17T02:50:23.632Z,6.20
2023-04-17T02:53:04.278Z,6.24
2023-04-17T02:55:36.637Z,6.28
2023-04-17T02:58:08.802Z,6.35
2023-04-17T03:00:41.835Z,6.42
2023-04-17T03:03:17.595Z,6.48
2023-04-17T03:05:50.019Z,6.57
2023-04-17T03:08:22.149Z,6.65
2023-04-17T03:10:54.357Z,6.72
2023-04-17T03:13:26.710Z,6.75
2023-04-17T03:16:00.412Z,6.78
2023-04-17T03:18:33.278Z,6.83
2023-04-17T03:21:06.395Z,6.87
2023-04-17T03:23:38.923Z,6.89
2023-04-17T03:26:11.960Z,6.92
2023-04-17T03:28:47.835Z,6.94
2023-04-17T03:31:24.258Z,6.96
2023-04-17T03:33:56.649Z,7.00
2023-04-17T03:36:29.285Z,7.07
2023-04-17T03:39:01.421Z,7.11
2023-04-17T03:41:33.525Z,7.15
2023-04-17T03:44:05.673Z,7.18
2023-04-17T03:46:38.706Z,7.21
2023-04-17T03:49:11.276Z,7.22
2023-04-17T03:51:43.827Z,7.22
2023-04-17T03:54:20.763Z,7.21
2023-04-17T03:56:53.244Z,7.21
2023-04-17T03:59:25.525Z,7.22
2023-04-17T04:01:57.752Z,7.20
2023-04-17T04:04:32.032Z,7.22
2023-04-17T04:07:10.382Z,7.25
2023-04-17T04:09:46.220Z,7.24
2023-04-17T04:12:18.757Z,7.24
2023-04-17T04:14:52.678Z,7.24
2023-04-17T04:17:24.881Z,7.25
2023-04-17T04:19:59.221Z,7.27
2023-04-17T04:22:34.883Z,7.30
2023-04-17T04:25:08.670Z,7.31
2023-04-17T04:27:53.119Z,7.31
2023-04-17T04:30:35.945Z,7.33
2023-04-17T04:33:13.434Z,7.36
2023-04-17T04:35:47.518Z,7.38
2023-04-17T04:38:30.892Z,7.37
2023-04-17T04:41:10.531Z,7.38
2023-04-17T04:43:43.900Z,7.41
2023-04-17T04:46:16.726Z,7.45
2023-04-17T04:48:50.465Z,7.47
2023-04-17T04:51:22.558Z,7.50
2023-04-17T04:53:54.915Z,7.55
2023-04-17T04:56:27.830Z,7.60
2023-04-17T04:59:00.174Z,7.66
2023-04-17T05:01:33.682Z,7.69
2023-04-17T05:04:06.986Z,7.66
2023-04-17T05:06:39.104Z,7.63
2023-04-17T05:09:11.638Z,7.62
2023-04-17T05:11:44.081Z,7.63
2023-04-17T05:14:16.590Z,7.68
2023-04-17T05:16:48.976Z,7.67
2023-04-17T05:19:21.112Z,7.68
2023-04-17T05:21:58.350Z,7.66
2023-04-17T05:24:31.077Z,7.67
2023-04-17T05:27:03.248Z,7.69
2023-04-17T05:29:35.605Z,7.68
2023-04-17T05:32:08.751Z,7.67
2023-04-17T05:34:52.377Z,7.67
2023-04-17T05:37:26.526Z,7.66
2023-04-17T05:40:01.492Z,7.67
2023-04-17T05:42:34.180Z,7.69
2023-04-17T05:45:06.929Z,7.72
2023-04-17T05:47:39.163Z,7.76
2023-04-17T05:50:12.140Z,7.79
2023-04-17T05:52:44.204Z,7.81
2023-04-17T05:55:17.058Z,7.85
2023-04-17T05:57:50.166Z,7.87
2023-04-17T06:00:25.276Z,7.90
2023-04-17T06:03:01.587Z,7.91
2023-04-17T06:05:40.258Z,7.94
2023-04-17T06:08:12.576Z,7.97
2023-04-17T06:10:45.825Z,8.03
2023-04-17T06:13:20.608Z,8.15
2023-04-17T06:15:54.282Z,8.26
2023-04-17T06:18:26.503Z,8.33
2023-04-17T06:20:58.712Z,8.40
2023-04-17T06:23:33.286Z,8.45
2023-04-17T06:26:05.308Z,8.51
2023-04-17T06:28:37.374Z,8.59
2023-04-17T06:31:10.621Z,8.63
2023-04-17T06:33:42.777Z,8.67
2023-04-17T06:36:15.204Z,8.77
2023-04-17T06:38:53.658Z,8.83
2023-04-17T06:41:25.821Z,8.88
2023-04-17T06:43:59.188Z,8.91
2023-04-17T06:46:35.689Z,8.96
2023-04-17T06:49:09.660Z,9.04
2023-04-17T06:51:45.855Z,9.12
2023-04-17T06:54:23.347Z,9.20
2023-04-17T06:56:58.205Z,9.24
2023-04-17T06:59:30.911Z,9.28
2023-04-17T07:02:03.414Z,9.33
2023-04-17T07:04:35.671Z,9.36
2023-04-17T07:07:08.201Z,9.38
2023-04-17T07:09:43.112Z,9.39
2023-04-17T07:12:15.144Z,9.39
2023-04-17T07:14:47.209Z,9.37
2023-04-17T07:17:21.465Z,9.37
2023-04-17T07:19:53.694Z,9.37
2023-04-17T07:22:27.223Z,9.38
2023-04-17T07:24:59.503Z,9.44
2023-04-17T07:27:31.603Z,9.52
2023-04-17T07:30:03.805Z,9.58
2023-04-17T07:32:36.302Z,9.60
2023-04-17T07:35:09.816Z,9.57
2023-04-17T07:37:42.114Z,9.58
2023-04-17T07:40:14.733Z,9.60
2023-04-17T07:42:46.725Z,9.67
2023-04-17T07:45:18.860Z,9.72
2023-04-17T07:47:51.877Z,9.75
2023-04-17T07:50:24.320Z,9.79
2023-04-17T07:52:56.854Z,9.83
2023-04-17T07:55:28.980Z,9.85
2023-04-17T07:58:03.808Z,9.88
2023-04-17T08:00:37.578Z,9.91
2023-04-17T08:03:10.123Z,9.96
2023-04-17T08:05:42.318Z,10.05
2023-04-17T08:08:14.410Z,10.14
2023-04-17T08:10:46.597Z,10.17
2023-04-17T08:13:18.724Z,10.17
2023-04-17T08:15:52.282Z,10.18
2023-04-17T08:18:24.370Z,10.22
2023-04-17T08:20:56.376Z,10.26
2023-04-17T08:23:28.426Z,10.31
2023-04-17T08:26:00.957Z,10.45
2023-04-17T08:28:33.011Z,10.64
2023-04-17T08:31:05.026Z,10.84
2023-04-17T08:33:37.752Z,11.07
2023-04-17T08:36:10.657Z,11.31
2023-04-17T08:38:45.116Z,11.52
2023-04-17T08:42:15.414Z,11.68
2023-04-17T08:44:50.909Z,11.98
2023-04-17T08:47:23.169Z,12.40
2023-04-17T08:49:56.183Z,12.73
2023-04-17T08:52:28.624Z,13.02
2023-04-17T08:55:03.013Z,13.09
2023-04-17T08:57:35.083Z,13.19
2023-04-17T09:00:12.208Z,13.59
2023-04-17T09:02:58.273Z,14.01
2023-04-17T09:05:33.533Z,14.36
2023-04-17T09:08:14.500Z,14.39
2023-04-17T09:10:51.325Z,14.27
2023-04-17T09:13:25.284Z,13.98
2023-04-17T09:16:09.374Z,13.71
2023-04-17T09:18:43.012Z,13.53
2023-04-17T09:21:16.630Z,13.36
2023-04-17T09:23:54.379Z,13.20
2023-04-17T09:26:27.524Z,13.08
2023-04-17T09:29:09.276Z,13.05
2023-04-17T09:31:43.388Z,13.04
2023-04-17T09:34:16.877Z,13.02
2023-04-17T09:36:49.332Z,12.99
2023-04-17T09:39:24.462Z,12.87
2023-04-17T09:42:06.394Z,12.71
2023-04-17T09:44:40.501Z,12.59
2023-04-17T09:47:13.540Z,12.59
2023-04-17T09:49:52.465Z,12.62
2023-04-17T09:52:25.604Z,12.59
2023-04-17T09:55:00.251Z,12.57
2023-04-17T09:57:32.463Z,12.57
2023-04-17T10:00:06.627Z,12.53
2023-04-17T10:02:39.348Z,12.51
2023-04-17T10:05:13.358Z,12.53
2023-04-17T10:07:49.848Z,12.57
2023-04-17T10:10:27.235Z,12.69
2023-04-17T10:13:02.258Z,12.83
2023-04-17T10:15:35.491Z,12.96
2023-04-17T10:18:24.471Z,13.06
2023-04-17T10:20:58.396Z,13.10
2023-04-17T10:23:32.693Z,13.13
2023-04-17T10:26:40.872Z,13.17
2023-04-17T10:29:13.757Z,13.17
2023-04-17T10:32:16.659Z,13.22
2023-04-17T10:34:49.963Z,13.24
2023-04-17T10:37:23.315Z,13.30
2023-04-17T10:40:10.838Z,13.34
2023-04-17T10:42:43.318Z,13.33
2023-04-17T10:45:22.219Z,13.36
2023-04-17T10:48:00.945Z,13.34
2023-04-17T10:50:33.333Z,13.32
2023-04-17T10:53:05.951Z,13.30
2023-04-17T10:55:50.469Z,13.29
2023-04-17T10:58:31.819Z,13.34
2023-04-17T11:01:12.578Z,13.43
2023-04-17T11:03:43.474Z,13.57
2023-04-17T11:06:18.765Z,13.68
2023-04-17T11:08:57.280Z,13.76
2023-04-17T11:14:17.007Z,13.82
2023-04-17T11:16:58.420Z,13.80
2023-04-17T11:19:30.629Z,13.75
2023-04-17T11:22:02.872Z,13.73
2023-04-17T11:24:35.116Z,13.74
2023-04-17T11:27:08.102Z,13.81
2023-04-17T11:29:40.220Z,13.88
2023-04-17T11:32:14.644Z,13.84
2023-04-17T11:34:46.871Z,13.80
2023-04-17T11:37:18.959Z,13.82
2023-04-17T11:39:51.010Z,13.86
2023-04-17T11:42:29.567Z,13.90
2023-04-17T11:45:10.238Z,13.94
2023-04-17T11:47:43.074Z,13.95
2023-04-17T11:50:18.026Z,13.98
2023-04-17T11:52:50.125Z,13.99
2023-04-17T11:55:22.487Z,13.95
2023-04-17T11:57:57.008Z,13.86
2023-04-17T12:00:31.020Z,13.84
2023-04-17T12:03:04.219Z,13.84
2023-04-17T12:05:37.924Z,13.84
2023-04-17T12:08:11.237Z,13.84
2023-04-17T12:10:46.667Z,13.82
2023-04-17T12:13:19.120Z,13.78
2023-04-17T12:15:51.166Z,13.71
2023-04-17T12:18:23.190Z,13.64
2023-04-17T12:20:55.181Z,13.60
2023-04-17T12:23:27.239Z,13.59
2023-04-17T12:25:59.868Z,13.57
2023-04-17T12:28:32.328Z,13.60
2023-04-17T12:31:06.492Z,13.63
2023-04-17T12:33:38.889Z,13.66
2023-04-17T12:36:11.763Z,13.68
2023-04-17T12:38:44.116Z,13.69
2023-04-17T12:41:16.195Z,13.69
2023-04-17T12:43:48.602Z,13.71
2023-04-17T12:46:20.791Z,13.75
2023-04-17T12:48:58.361Z,13.79
2023-04-17T12:51:32.377Z,13.84
2023-04-17T12:54:04.621Z,13.87
2023-04-17T12:56:36.735Z,13.93
2023-04-17T12:59:09.019Z,13.94
2023-04-17T13:01:41.307Z,13.91
2023-04-17T13:04:14.017Z,13.90
2023-04-17T13:06:46.436Z,13.87
2023-04-17T13:09:20.063Z,13.84
2023-04-17T13:11:52.482Z,13.83
2023-04-17T13:14:24.644Z,13.85
2023-04-17T13:16:56.763Z,13.82
2023-04-17T13:19:29.064Z,13.77
2023-04-17T13:22:01.148Z,13.73
2023-04-17T13:24:34.024Z,13.75
2023-04-17T13:27:06.530Z,13.73
2023-04-17T13:29:38.646Z,13.76
2023-04-17T13:32:10.757Z,13.80
2023-04-17T13:34:42.728Z,13.86
2023-04-17T13:37:16.057Z,13.91
2023-04-17T13:39:48.143Z,13.91
2023-04-17T13:42:21.496Z,13.89
2023-04-17T13:44:53.549Z,13.85
2023-04-17T13:47:25.647Z,13.83
2023-04-17T13:49:57.785Z,13.81
2023-04-17T13:52:29.877Z,13.74
2023-04-17T13:55:02.329Z,13.66
2023-04-17T13:57:35.728Z,13.60
2023-04-17T14:00:10.727Z,13.54
2023-04-17T14:02:45.431Z,13.49
2023-04-17T14:05:18.016Z,13.35
2023-04-17T14:07:50.132Z,13.18
2023-04-17T14:10:22.336Z,13.05
2023-04-17T14:12:54.367Z,12.91
2023-04-17T14:15:26.518Z,12.80
2023-04-17T14:17:59.240Z,12.71
2023-04-17T14:20:31.542Z,12.65
2023-04-17T14:23:03.611Z,12.63
2023-04-17T14:25:35.706Z,12.64
2023-04-17T14:28:07.797Z,12.63
2023-04-17T14:30:39.829Z,12.67
2023-04-17T14:33:11.913Z,12.69
2023-04-17T14:35:43.931Z,12.71
2023-04-17T14:38:15.978Z,12.69
2023-04-17T14:40:47.999Z,12.71
2023-04-17T14:43:20.038Z,12.72
2023-04-17T14:45:52.483Z,12.71
2023-04-17T14:48:24.817Z,12.69
2023-04-17T14:50:56.926Z,12.65
2023-04-17T14:53:29.308Z,12.66
2023-04-17T14:56:01.435Z,12.65
2023-04-17T14:58:33.533Z,12.65
2023-04-17T15:01:05.735Z,12.67
2023-04-17T15:03:38.075Z,12.68
2023-04-17T15:06:11.288Z,12.72
2023-04-17T15:08:43.349Z,12.74
2023-04-17T15:11:16.011Z,12.74
2023-04-17T15:13:48.126Z,12.75
2023-04-17T15:16:23.252Z,12.73
2023-04-17T15:18:55.341Z,12.72
2023-04-17T15:21:27.414Z,12.72
2023-04-17T15:23:59.501Z,12.71
2023-04-17T15:26:33.257Z,12.73
2023-04-17T15:29:05.423Z,12.71
2023-04-17T15:31:37.995Z,12.68
2023-04-17T15:34:12.020Z,12.68
2023-04-17T15:36:44.475Z,12.67
2023-04-17T15:39:17.392Z,12.65
2023-04-17T15:41:49.900Z,12.64
2023-04-17T15:44:21.954Z,12.62
2023-04-17T15:46:55.506Z,12.61
2023-04-17T15:49:28.526Z,12.61
2023-04-17T15:52:01.372Z,12.62
2023-04-17T15:54:34.542Z,12.64
2023-04-17T15:57:06.721Z,12.65
2023-04-17T15:59:38.893Z,12.63
2023-04-17T16:02:13.971Z,12.62
2023-04-17T16:04:46.201Z,12.58
2023-04-17T16:07:18.456Z,12.50
2023-04-17T16:09:51.016Z,12.43
2023-04-17T16:12:23.086Z,12.39
2023-04-17T16:14:55.149Z,12.33
2023-04-17T16:17:27.261Z,12.30
2023-04-17T16:20:02.955Z,12.23
2023-04-17T16:22:35.279Z,12.16
2023-04-17T16:25:08.492Z,12.15
2023-04-17T16:27:43.915Z,12.12
2023-04-17T16:30:16.560Z,12.08
2023-04-17T16:32:50.213Z,12.06
2023-04-17T16:35:25.921Z,12.03
2023-04-17T16:37:58.066Z,12.03
2023-04-17T16:40:30.995Z,12.01
2023-04-17T16:43:03.344Z,11.99
2023-04-17T16:45:37.253Z,11.98
2023-04-17T16:48:11.324Z,11.95
2023-04-17T16:50:43.574Z,11.93
2023-04-17T16:53:16.083Z,11.89
2023-04-17T16:55:49.306Z,11.86
2023-04-17T16:58:21.300Z,11.85
2023-04-17T17:00:53.758Z,11.80
2023-04-17T17:03:26.005Z,11.77
2023-04-17T17:05:58.174Z,11.73
2023-04-17T17:08:30.493Z,11.70
2023-04-17T17:11:03.655Z,11.67
2023-04-17T17:13:35.826Z,11.63
2023-04-17T17:16:07.888Z,11.60
2023-04-17T17:18:39.881Z,11.57
2023-04-17T17:21:12.138Z,11.54
2023-04-17T17:23:44.696Z,11.51
2023-04-17T17:26:17.291Z,11.50
2023-04-17T17:28:51.551Z,11.47
2023-04-17T17:31:28.448Z,11.46
2023-04-17T17:34:17.010Z,11.41
2023-04-17T17:36:54.793Z,11.36
2023-04-17T17:39:26.836Z,11.34
2023-04-17T17:41:59.602Z,11.31
2023-04-17T17:44:32.513Z,11.28
2023-04-17T17:47:06.400Z,11.25
2023-04-17T17:49:40.197Z,11.25
2023-04-17T17:52:12.685Z,11.24
2023-04-17T17:54:45.195Z,11.24
2023-04-17T17:57:17.603Z,11.23
2023-04-17T17:59:49.986Z,11.21
2023-04-17T18:02:22.189Z,11.21
2023-04-17T18:04:54.629Z,11.21
2023-04-17T18:07:27.131Z,11.19
2023-04-17T18:09:59.566Z,11.19
2023-04-17T18:12:31.558Z,11.17
2023-04-17T18:15:03.679Z,11.15
2023-04-17T18:17:36.064Z,11.15
2023-04-17T18:20:13.666Z,11.14
2023-04-17T18:22:45.789Z,11.13
2023-04-17T18:25:18.577Z,11.11
2023-04-17T18:27:51.215Z,11.07
2023-04-17T18:30:23.310Z,11.04
2023-04-17T18:32:56.054Z,11.00
2023-04-17T18:35:28.218Z,10.95
2023-04-17T18:38:00.429Z,10.91
2023-04-17T18:40:33.273Z,10.86
2023-04-17T18:43:06.141Z,10.85
2023-04-17T18:45:38.854Z,10.81
2023-04-17T18:48:10.991Z,10.74
2023-04-17T18:50:43.167Z,10.66
2023-04-17T18:53:15.731Z,10.59
2023-04-17T18:55:48.165Z,10.55
2023-04-17T18:58:20.635Z,10.51
2023-04-17T19:00:53.110Z,10.46
2023-04-17T19:03:25.753Z,10.41
2023-04-17T19:05:58.160Z,10.36
2023-04-17T19:08:30.662Z,10.33
2023-04-17T19:11:03.214Z,10.30
2023-04-17T19:13:35.707Z,10.26
2023-04-17T19:16:08.617Z,10.24
2023-04-17T19:18:40.799Z,10.24
2023-04-17T19:21:12.826Z,10.24
2023-04-17T19:23:46.538Z,10.24
2023-04-17T19:26:18.698Z,10.22
2023-04-17T19:28:50.868Z,10.17
2023-04-17T19:31:23.310Z,10.14
2023-04-17T19:33:56.701Z,10.10
2023-04-17T19:36:28.844Z,10.07
2023-04-17T19:39:00.873Z,10.04
2023-04-17T19:41:33.211Z,10.04
2023-04-17T19:44:05.726Z,10.02
2023-04-17T19:46:37.785Z,10.01
2023-04-17T19:49:13.416Z,10.00
2023-04-17T19:51:45.981Z,10.00
2023-04-17T19:54:18.453Z,9.99
2023-04-17T19:56:50.666Z,10.01
2023-04-17T19:59:23.297Z,10.00
2023-04-17T20:01:58.574Z,10.01
2023-04-17T20:04:30.979Z,10.02
2023-04-17T20:07:04.084Z,10.03
2023-04-17T20:09:36.168Z,10.03
2023-04-17T20:12:11.919Z,10.04
2023-04-17T20:14:44.035Z,10.04
2023-04-17T20:17:16.117Z,10.02
2023-04-17T20:19:48.344Z,10.00
2023-04-17T20:22:20.357Z,9.98
2023-04-17T20:24:52.512Z,9.96
2023-04-17T20:27:26.597Z,9.97
2023-04-17T20:29:58.686Z,9.96
2023-04-17T20:32:30.777Z,9.92
2023-04-17T20:35:03.129Z,9.89
2023-04-17T20:37:35.209Z,9.87
2023-04-17T20:43:59.291Z,9.82
2023-04-17T20:46:31.953Z,9.83
2023-04-17T20:49:04.028Z,9.82
2023-04-17T20:51:36.378Z,9.82
2023-04-17T20:54:08.839Z,9.79
2023-04-17T20:56:40.901Z,9.76
2023-04-17T20:59:13.301Z,9.76
2023-04-17T21:01:45.413Z,9.75
2023-04-17T21:04:17.892Z,9.76
2023-04-17T21:06:50.003Z,9.76
2023-04-17T21:09:23.431Z,9.76
2023-04-17T21:11:55.465Z,9.74
2023-04-17T21:14:29.544Z,9.76
2023-04-17T21:17:01.715Z,9.77
2023-04-17T21:19:35.977Z,9.75
2023-04-17T21:22:08.552Z,9.76
2023-04-17T21:24:41.511Z,9.75
2023-04-17T21:27:13.672Z,9.74
2023-04-17T21:29:45.808Z,9.74
2023-04-17T21:32:17.824Z,9.74
2023-04-17T21:34:50.180Z,9.73
2023-04-17T21:37:22.525Z,9.74
2023-04-17T21:39:54.729Z,9.73
2023-04-17T21:42:27.338Z,9.70
2023-04-17T21:44:59.488Z,9.68
2023-04-17T21:47:31.539Z,9.68
2023-04-17T21:50:03.655Z,9.66
2023-04-17T21:52:35.670Z,9.65
2023-04-17T21:55:11.036Z,9.64
2023-04-17T21:57:43.122Z,9.65
2023-04-17T22:00:17.675Z,9.64
2023-04-17T22:02:49.686Z,9.64
2023-04-17T22:05:22.243Z,9.65
2023-04-17T22:07:55.562Z,9.65
2023-04-17T22:10:29.835Z,9.64
2023-04-17T22:13:02.139Z,9.61
2023-04-17T22:15:34.187Z,9.61
2023-04-17T22:18:06.663Z,9.58
2023-04-17T22:20:38.947Z,9.59
2023-04-17T22:23:10.998Z,9.59
2023-04-17T22:25:42.889Z,9.59
2023-04-17T22:28:14.892Z,9.58
2023-04-17T22:30:50.473Z,9.58
2023-04-17T22:33:22.516Z,9.58
2023-04-17T22:35:54.600Z,9.57
2023-04-17T22:38:26.607Z,9.55
2023-04-17T22:40:58.852Z,9.54
2023-04-17T22:43:30.918Z,9.54
2023-04-17T22:46:02.960Z,9.54
2023-04-17T22:48:35.174Z,9.55
2023-04-17T22:51:09.805Z,9.53
2023-04-17T22:53:42.271Z,9.52
2023-04-17T22:56:15.499Z,9.50
2023-04-17T22:58:47.785Z,9.49
2023-04-17T23:01:19.825Z,9.50
2023-04-17T23:03:52.425Z,9.49
2023-04-17T23:06:29.116Z,9.48
2023-04-17T23:09:01.545Z,9.48
2023-04-17T23:11:36.412Z,9.47
2023-04-17T23:14:08.491Z,9.46
2023-04-17T23:16:40.492Z,9.45
2023-04-17T23:19:12.605Z,9.43
2023-04-17T23:21:45.010Z,9.43
2023-04-17T23:24:17.073Z,9.43
2023-04-17T23:26:49.550Z,9.43
2023-04-17T23:29:21.548Z,9.43
2023-04-17T23:31:53.783Z,9.44
2023-04-17T23:34:26.955Z,9.43
2023-04-17T23:36:59.038Z,9.41
2023-04-17T23:39:31.773Z,9.41
2023-04-17T23:42:08.117Z,9.39
2023-04-17T23:44:40.281Z,9.38
2023-04-17T23:47:14.353Z,9.37
2023-04-17T23:49:47.491Z,9.36
2023-04-17T23:52:19.716Z,9.36
2023-04-17T23:54:51.796Z,9.34
2023-04-17T23:57:24.575Z,9.34
2023-04-17T23:59:56.758Z,9.35
